Time;durP1;ratioP1;P1;durP2;ratioP2;P2;SDS_P1;SDS_P2;PMS_P1;PMS_P2;Temp;Humidity;BMP_temperature;BMP_pressure;BME280_temperature;BME280_humidity;BME280_pressure;Samples;Min_cycle;Max_cycle;Signal;HPM_P1;HPM_P2
2024/01/19 00:00:51;;;;;;;5.93;4.40;;;;;;;10.74;73.24;93539.94;4204310;28;20055;-67
2024/01/19 00:02:53;;;;;;;6.38;4.60;;;;;;;10.62;73.13;93519.47;4200053;28;20127;-69
2024/01/19 00:04:54;;;;;;;8.18;4.68;;;;;;;10.48;74.10;93528.22;4201951;28;20449;-67
2024/01/19 00:06:56;;;;;;;6.95;4.68;;;;;;;10.55;74.57;93549.22;4206748;28;20044;-69
2024/01/19 00:08:58;;;;;;;6.38;4.72;;;;;;;10.54;74.20;93534.50;4207196;28;20606;-69
2024/01/19 00:11:00;;;;;;;7.57;4.70;;;;;;;10.54;74.42;93531.88;4200928;28;20051;-67
2024/01/19 00:13:02;;;;;;;7.90;4.65;;;;;;;10.61;74.39;93545.88;4204323;28;20054;-69
2024/01/19 00:15:07;;;;;;;8.35;4.63;;;;;;;10.68;74.09;93544.09;4199056;28;20142;-66
2024/01/19 00:17:09;;;;;;;7.28;5.28;;;;;;;10.71;73.81;93546.38;4205556;28;20051;-67
2024/01/19 00:19:11;;;;;;;8.15;4.95;;;;;;;10.67;74.09;93552.97;4207988;28;20044;-69
2024/01/19 00:21:14;;;;;;;8.25;4.82;;;;;;;10.71;73.83;93550.78;4196489;28;20120;-68
2024/01/19 00:23:15;;;;;;;7.60;4.72;;;;;;;10.75;73.97;93554.63;4194709;28;20054;-69
2024/01/19 00:25:17;;;;;;;6.13;4.32;;;;;;;10.77;73.86;93552.66;4197629;28;20477;-68
2024/01/19 00:27:19;;;;;;;7.82;4.53;;;;;;;10.78;73.80;93546.41;4192979;28;20503;-67
2024/01/19 00:29:21;;;;;;;7.60;5.57;;;;;;;10.82;73.42;93556.34;4197429;28;20319;-67
2024/01/19 00:31:26;;;;;;;11.55;6.40;;;;;;;10.85;73.55;93558.56;4193736;28;20072;-68
2024/01/19 00:33:28;;;;;;;8.13;6.97;;;;;;;10.76;73.44;93545.78;4196539;28;20142;-70
2024/01/19 00:35:30;;;;;;;9.07;6.60;;;;;;;10.66;73.90;93541.66;4201969;28;20058;-69
2024/01/19 00:37:32;;;;;;;8.95;6.82;;;;;;;10.60;74.52;93563.38;4205833;28;20127;-68
2024/01/19 00:39:34;;;;;;;9.15;7.63;;;;;;;10.68;74.53;93559.81;4204738;28;20051;-68
2024/01/19 00:41:36;;;;;;;9.15;7.07;;;;;;;10.73;74.50;93546.16;4196043;28;20139;-67
2024/01/19 00:43:38;;;;;;;10.52;8.00;;;;;;;10.73;74.10;93543.53;4192768;28;20052;-68
2024/01/19 00:45:40;;;;;;;10.80;6.90;;;;;;;10.61;74.48;93549.28;4202162;28;20102;-69
2024/01/19 00:47:43;;;;;;;10.15;7.38;;;;;;;10.51;75.34;93567.09;4202394;28;20275;-69
2024/01/19 00:49:45;;;;;;;11.15;8.48;;;;;;;10.56;75.03;93556.06;4199213;28;20056;-65
2024/01/19 00:51:47;;;;;;;9.82;7.60;;;;;;;10.49;75.44;93548.16;4194028;28;20075;-69
2024/01/19 00:53:49;;;;;;;10.35;8.02;;;;;;;10.50;75.38;93562.06;4203801;28;20052;-68
2024/01/19 00:55:51;;;;;;;16.30;9.68;;;;;;;10.47;75.87;93567.66;4198015;28;20060;-68
2024/01/19 00:57:53;;;;;;;11.05;9.85;;;;;;;10.47;75.84;93568.47;4204101;28;20127;-67
2024/01/19 00:59:55;;;;;;;12.02;10.75;;;;;;;10.07;77.34;93544.47;4202587;28;20044;-68
2024/01/19 01:01:57;;;;;;;12.45;10.85;;;;;;;10.14;77.75;93558.44;4204551;28;20238;-68
2024/01/19 01:04:01;;;;;;;12.23;10.10;;;;;;;10.21;77.32;93575.00;4200599;28;20146;-70
2024/01/19 01:06:04;;;;;;;12.70;11.35;;;;;;;10.37;77.43;93562.75;4206350;28;20433;-70
2024/01/19 01:08:06;;;;;;;12.75;11.43;;;;;;;10.37;76.78;93552.28;4198426;28;20129;-68
2024/01/19 01:10:09;;;;;;;12.45;11.10;;;;;;;10.38;76.87;93569.59;4205690;28;20171;-68
2024/01/19 01:12:11;;;;;;;16.10;12.95;;;;;;;10.34;76.74;93557.88;4198308;28;20044;-66
2024/01/19 01:14:15;;;;;;;14.80;13.20;;;;;;;10.38;76.90;93562.53;4197597;28;20519;-66
2024/01/19 01:16:17;;;;;;;15.68;14.02;;;;;;;10.43;76.59;93562.81;4199479;28;20153;-66
2024/01/19 01:18:20;;;;;;;19.63;14.50;;;;;;;10.47;76.55;93565.06;4207283;28;20546;-67
2024/01/19 01:20:22;;;;;;;17.13;14.65;;;;;;;10.47;75.99;93552.75;4198225;28;20088;-68
2024/01/19 01:22:24;;;;;;;14.43;12.93;;;;;;;10.47;76.45;93563.22;4195644;28;20178;-68
2024/01/19 01:24:26;;;;;;;13.57;12.18;;;;;;;10.49;76.49;93565.69;4194830;28;20044;-68
2024/01/19 01:26:28;;;;;;;14.98;12.32;;;;;;;10.48;76.31;93566.69;4198988;28;20048;-67
2024/01/19 01:28:30;;;;;;;12.43;11.10;;;;;;;10.50;75.98;93581.22;4196451;28;20059;-69
2024/01/19 01:30:31;;;;;;;13.18;11.13;;;;;;;10.30;75.75;93557.41;4204079;28;20048;-69
2024/01/19 01:32:33;;;;;;;14.15;11.73;;;;;;;10.23;76.86;93565.16;4196628;28;20480;-68
2024/01/19 01:34:36;;;;;;;14.20;11.15;;;;;;;10.19;76.77;93550.81;4199743;28;20052;-68
2024/01/19 01:36:37;;;;;;;13.32;11.18;;;;;;;10.18;77.31;93558.88;4200160;28;20101;-68
2024/01/19 01:38:39;;;;;;;11.77;9.95;;;;;;;10.21;77.29;93548.84;4205847;28;20069;-69
2024/01/19 01:40:42;;;;;;;14.65;10.40;;;;;;;10.11;77.13;93566.66;4195246;28;20073;-66
2024/01/19 01:42:44;;;;;;;11.45;9.27;;;;;;;9.64;79.33;93554.81;4205330;28;20098;-68
2024/01/19 01:44:46;;;;;;;10.57;9.15;;;;;;;9.71;79.52;93568.78;4201650;28;20040;-69
2024/01/19 01:46:48;;;;;;;14.65;10.48;;;;;;;9.66;78.56;93558.06;4198743;28;20048;-68
2024/01/19 01:48:50;;;;;;;12.82;9.95;;;;;;;9.38;80.54;93565.72;4208123;28;20114;-69
2024/01/19 01:50:54;;;;;;;12.30;9.93;;;;;;;9.53;80.24;93570.94;4201345;28;20043;-67
2024/01/19 01:52:56;;;;;;;13.70;9.68;;;;;;;9.64;79.53;93549.59;4192711;28;20475;-70
2024/01/19 01:54:58;;;;;;;10.50;9.40;;;;;;;9.80;79.55;93554.59;4201207;28;20112;-68
2024/01/19 01:57:00;;;;;;;11.25;9.82;;;;;;;9.91;78.83;93563.00;4204973;28;20101;-66
2024/01/19 01:59:02;;;;;;;11.30;8.95;;;;;;;9.72;78.46;93559.97;4204149;28;20074;-70
2024/01/19 02:01:04;;;;;;;10.32;8.70;;;;;;;9.31;79.71;93554.34;4199742;28;20060;-68
2024/01/19 02:03:06;;;;;;;11.52;8.90;;;;;;;9.47;80.33;93559.41;4203353;28;20518;-68
2024/01/19 02:05:08;;;;;;;11.88;8.52;;;;;;;9.65;80.44;93556.44;4204545;28;20537;-68
2024/01/19 02:07:10;;;;;;;10.07;7.63;;;;;;;9.80;79.28;93564.25;4203905;28;20401;-68
2024/01/19 02:09:13;;;;;;;10.32;8.05;;;;;;;9.89;78.37;93560.53;4192010;28;20129;-68
2024/01/19 02:11:15;;;;;;;9.30;6.90;;;;;;;9.87;78.52;93566.97;4195196;28;20053;-68
2024/01/19 02:13:17;;;;;;;9.13;7.63;;;;;;;9.88;78.50;93555.53;4196942;28;20044;-67
2024/01/19 02:15:23;;;;;;;9.68;7.35;;;;;;;9.98;78.32;93571.72;4203482;28;20154;-67
2024/01/19 02:17:26;;;;;;;8.23;7.07;;;;;;;10.02;78.04;93560.72;4200220;28;20560;-68
2024/01/19 02:19:28;;;;;;;9.45;6.40;;;;;;;10.13;77.87;93564.69;4206767;28;20518;-67
2024/01/19 02:21:30;;;;;;;11.55;7.40;;;;;;;10.24;77.14;93569.44;4202641;28;20109;-68
2024/01/19 02:23:36;;;;;;;7.53;6.60;;;;;;;10.18;76.62;93554.47;4207006;28;20114;-66
2024/01/19 02:25:37;;;;;;;12.35;7.07;;;;;;;10.13;76.53;93551.59;4202762;28;20087;-67
2024/01/19 02:27:40;;;;;;;8.60;6.70;;;;;;;10.19;76.50;93569.16;4194775;28;20048;-68
2024/01/19 02:29:50;;;;;;;8.60;6.45;;;;;;;9.98;76.40;93585.63;4190380;28;20056;-68
2024/01/19 02:31:52;;;;;;;10.23;6.53;;;;;;;10.04;77.03;93576.22;4190551;28;20404;-69
2024/01/19 02:33:53;;;;;;;8.20;6.45;;;;;;;10.02;76.65;93586.91;4195407;28;20084;-67
2024/01/19 02:35:55;;;;;;;8.88;6.75;;;;;;;9.81;77.16;93577.16;4196378;28;20048;-66
2024/01/19 02:37:58;;;;;;;8.50;6.40;;;;;;;9.81;77.67;93574.56;4200988;28;20048;-66
2024/01/19 02:40:00;;;;;;;10.30;6.25;;;;;;;9.92;77.43;93601.25;4194499;28;20120;-67
2024/01/19 02:42:02;;;;;;;9.70;6.80;;;;;;;9.97;77.08;93594.47;4202905;28;20054;-67
2024/01/19 02:44:05;;;;;;;12.18;6.97;;;;;;;10.03;77.19;93588.50;4201408;28;20439;-66
2024/01/19 02:46:08;;;;;;;7.40;6.03;;;;;;;10.09;77.02;93592.19;4195646;28;20048;-67
2024/01/19 02:48:12;;;;;;;8.07;6.23;;;;;;;10.11;76.50;93602.47;4192748;28;20048;-68
2024/01/19 02:50:14;;;;;;;8.98;6.43;;;;;;;10.11;76.19;93602.47;4194649;28;20060;-69
2024/01/19 02:52:16;;;;;;;9.93;6.50;;;;;;;10.09;76.50;93601.84;4192497;28;20097;-65
2024/01/19 02:54:18;;;;;;;8.27;6.50;;;;;;;10.05;76.40;93609.25;4200591;28;20060;-68
2024/01/19 02:56:20;;;;;;;8.68;6.70;;;;;;;10.06;76.34;93623.94;4207087;28;20054;-68
2024/01/19 02:58:21;;;;;;;9.57;6.78;;;;;;;10.06;76.03;93613.47;4196064;28;20055;-70
2024/01/19 03:00:23;;;;;;;12.82;6.90;;;;;;;10.08;76.07;93616.72;4193493;28;20064;-67
2024/01/19 03:02:28;;;;;;;10.13;7.35;;;;;;;10.10;75.88;93613.94;4202257;28;20109;-68
2024/01/19 03:04:30;;;;;;;9.63;6.55;;;;;;;10.11;75.92;93612.94;4207807;28;20388;-66
2024/01/19 03:06:31;;;;;;;9.68;7.18;;;;;;;10.01;75.79;93618.47;4198276;28;20421;-70
2024/01/19 03:08:33;;;;;;;9.48;6.57;;;;;;;10.07;76.01;93622.97;4200101;28;20581;-68
2024/01/19 03:10:35;;;;;;;8.13;6.22;;;;;;;10.00;75.61;93611.59;4205315;28;20083;-67
2024/01/19 03:12:37;;;;;;;8.43;6.43;;;;;;;9.97;76.16;93609.34;4205870;28;20548;-68
2024/01/19 03:14:39;;;;;;;10.65;6.57;;;;;;;9.97;76.46;93598.88;4208434;28;20074;-67
2024/01/19 03:16:42;;;;;;;8.68;6.43;;;;;;;9.94;76.05;93601.88;4209196;28;20044;-67
2024/01/19 03:18:44;;;;;;;11.47;6.40;;;;;;;9.93;75.80;93606.28;4201751;28;20059;-68
2024/01/19 03:20:46;;;;;;;6.95;5.55;;;;;;;9.93;76.08;93602.84;4210634;28;20321;-65
2024/01/19 03:22:47;;;;;;;8.35;5.88;;;;;;;9.98;75.45;93609.19;4205282;28;20512;-65
2024/01/19 03:24:51;;;;;;;9.32;6.22;;;;;;;10.04;75.11;93607.63;4209807;28;20467;-68
2024/01/19 03:26:53;;;;;;;7.65;5.85;;;;;;;9.87;75.23;93609.63;4208066;28;20062;-67
2024/01/19 03:28:55;;;;;;;10.05;5.63;;;;;;;9.87;76.00;93609.63;4196870;28;20201;-67
2024/01/19 03:30:57;;;;;;;7.05;5.72;;;;;;;9.85;75.41;93606.38;4205148;28;20048;-68
2024/01/19 03:32:58;;;;;;;8.02;6.15;;;;;;;9.78;75.38;93585.34;4205107;28;20051;-69
2024/01/19 03:35:01;;;;;;;7.43;5.68;;;;;;;9.75;76.24;93598.81;4200652;28;20603;-69
2024/01/19 03:37:03;;;;;;;8.30;6.15;;;;;;;9.80;76.03;93604.28;4197164;28;20461;-67
2024/01/19 03:39:06;;;;;;;10.93;5.30;;;;;;;9.82;75.81;93618.00;4206436;28;20070;-67
2024/01/19 03:41:07;;;;;;;8.18;5.50;;;;;;;9.89;76.09;93622.53;4205932;28;20066;-66
2024/01/19 03:43:09;;;;;;;7.00;5.55;;;;;;;9.83;75.23;93611.00;4204184;28;20058;-67
2024/01/19 03:45:13;;;;;;;6.13;5.15;;;;;;;9.77;75.55;93616.94;4197970;28;20650;-68
2024/01/19 03:47:16;;;;;;;8.20;5.13;;;;;;;9.84;75.76;93615.22;4196726;28;20056;-67
2024/01/19 03:49:18;;;;;;;7.05;5.25;;;;;;;9.89;75.23;93617.28;4206259;28;20139;-65
2024/01/19 03:51:20;;;;;;;6.80;5.47;;;;;;;9.86;74.90;93618.47;4198301;28;20067;-69
2024/01/19 03:53:22;;;;;;;6.93;5.32;;;;;;;9.90;74.97;93617.13;4204069;28;20051;-67
2024/01/19 03:55:24;;;;;;;6.15;5.10;;;;;;;9.92;75.24;93627.41;4203857;28;20143;-66
2024/01/19 03:57:26;;;;;;;7.75;4.72;;;;;;;9.96;74.68;93620.78;4192722;28;20057;-67
2024/01/19 03:59:28;;;;;;;7.13;4.72;;;;;;;10.03;74.02;93617.28;4201744;28;20052;-69
2024/01/19 04:01:30;;;;;;;7.35;5.28;;;;;;;10.04;74.28;93612.84;4193918;28;20131;-67
2024/01/19 04:03:32;;;;;;;9.13;5.55;;;;;;;10.10;73.80;93622.59;4201083;28;20096;-69
2024/01/19 04:05:36;;;;;;;7.97;5.72;;;;;;;10.19;74.28;93623.31;4205994;28;20052;-66
2024/01/19 04:07:38;;;;;;;8.68;5.82;;;;;;;10.19;73.32;93644.25;4205906;28;20059;-68
2024/01/19 04:09:40;;;;;;;11.07;5.43;;;;;;;10.16;73.32;93642.81;4195301;28;20180;-67
2024/01/19 04:11:43;;;;;;;7.80;5.70;;;;;;;10.02;73.68;93617.47;4202187;28;20051;-72
2024/01/19 04:13:45;;;;;;;8.80;5.75;;;;;;;10.00;73.86;93637.75;4203849;28;20105;-67
2024/01/19 04:15:47;;;;;;;6.47;5.15;;;;;;;9.98;73.57;93643.19;4206848;28;20040;-66
2024/01/19 04:17:48;;;;;;;8.25;5.35;;;;;;;9.90;73.88;93634.63;4198108;28;20416;-67
2024/01/19 04:19:51;;;;;;;6.57;5.18;;;;;;;9.71;74.72;93636.78;4199566;28;20173;-67
2024/01/19 04:21:52;;;;;;;7.22;4.63;;;;;;;9.62;74.86;93636.03;4198854;28;20083;-67
2024/01/19 04:23:54;;;;;;;8.10;5.35;;;;;;;9.61;75.11;93631.81;4204550;28;20126;-67
2024/01/19 04:25:56;;;;;;;9.20;4.90;;;;;;;9.70;75.03;93631.72;4199802;28;20101;-70
2024/01/19 04:27:58;;;;;;;6.40;4.60;;;;;;;9.51;74.95;93612.97;4199328;28;20052;-67
2024/01/19 04:30:00;;;;;;;6.25;4.38;;;;;;;9.42;75.55;93622.69;4207411;28;20505;-68
2024/01/19 04:32:02;;;;;;;6.55;4.03;;;;;;;9.48;75.08;93618.53;4205013;28;20414;-69
2024/01/19 04:34:04;;;;;;;8.35;4.80;;;;;;;9.57;76.01;93629.72;4205720;28;20124;-69
2024/01/19 04:36:07;;;;;;;6.20;4.50;;;;;;;9.63;75.13;93636.84;4201810;28;20139;-68
2024/01/19 04:38:08;;;;;;;5.85;4.55;;;;;;;9.69;75.13;93624.88;4197771;28;20052;-67
2024/01/19 04:40:10;;;;;;;6.80;5.05;;;;;;;9.54;74.66;93627.47;4206383;28;20433;-67
2024/01/19 04:42:12;;;;;;;6.57;4.68;;;;;;;9.53;74.87;93623.22;4207750;28;20622;-67
2024/01/19 04:44:14;;;;;;;6.15;4.57;;;;;;;9.54;74.86;93640.53;4206590;28;20099;-69
2024/01/19 04:46:16;;;;;;;7.63;4.75;;;;;;;9.19;75.44;93637.59;4208286;28;20044;-67
2024/01/19 04:48:18;;;;;;;7.35;4.70;;;;;;;9.08;77.05;93636.22;4204635;28;20052;-68
2024/01/19 04:50:20;;;;;;;7.10;4.72;;;;;;;9.14;76.94;93630.31;4206475;28;20074;-70
2024/01/19 04:52:22;;;;;;;8.18;4.78;;;;;;;9.11;76.49;93635.06;4206555;28;20043;-68
2024/01/19 04:54:24;;;;;;;6.57;4.20;;;;;;;9.00;77.00;93644.94;4196874;28;20067;-67
2024/01/19 04:56:26;;;;;;;6.75;4.82;;;;;;;9.08;76.64;93638.00;4202919;28;20053;-70
2024/01/19 04:58:28;;;;;;;7.80;4.70;;;;;;;8.90;76.74;93643.53;4197384;28;20053;-70
2024/01/19 05:00:29;;;;;;;5.95;4.85;;;;;;;8.67;77.68;93648.75;4202449;28;20058;-69
2024/01/19 05:02:32;;;;;;;7.18;5.28;;;;;;;8.82;78.67;93645.22;4198272;28;20107;-69
2024/01/19 05:04:35;;;;;;;7.43;5.20;;;;;;;8.82;77.38;93642.63;4199995;28;20056;-69
2024/01/19 05:06:37;;;;;;;6.97;5.38;;;;;;;8.91;77.82;93651.22;4202395;28;20044;-70
2024/01/19 05:08:39;;;;;;;6.72;5.18;;;;;;;8.98;77.19;93641.66;4203076;28;20060;-70
2024/01/19 05:10:41;;;;;;;7.95;5.85;;;;;;;9.12;77.47;93654.94;4198337;28;20454;-68
2024/01/19 05:12:43;;;;;;;7.32;5.70;;;;;;;9.17;76.88;93642.19;4206276;28;20123;-70
2024/01/19 05:14:48;;;;;;;8.20;5.32;;;;;;;9.32;76.15;93653.50;4197237;28;20119;-67
2024/01/19 05:16:50;;;;;;;6.82;5.30;;;;;;;9.43;76.36;93641.78;4205364;28;20174;-67
2024/01/19 05:18:52;;;;;;;7.00;5.63;;;;;;;9.38;76.22;93639.72;4197651;28;20056;-68
2024/01/19 05:20:54;;;;;;;8.32;5.57;;;;;;;9.45;75.43;93652.09;4202232;28;20054;-70
2024/01/19 05:22:56;;;;;;;8.02;5.30;;;;;;;9.54;75.68;93661.47;4196005;28;20098;-69
2024/01/19 05:24:58;;;;;;;9.00;6.07;;;;;;;9.26;75.21;93648.97;4193725;28;20576;-70
2024/01/19 05:27:00;;;;;;;8.98;5.88;;;;;;;9.20;76.20;93667.97;4191845;28;20055;-68
2024/01/19 05:29:02;;;;;;;7.90;5.72;;;;;;;9.26;75.89;93659.41;4192093;28;20044;-70
2024/01/19 05:31:04;;;;;;;8.90;6.20;;;;;;;9.09;76.11;93653.50;4198222;28;20048;-68
2024/01/19 05:33:05;;;;;;;7.68;5.18;;;;;;;9.18;76.52;93662.09;4196823;28;20475;-68
2024/01/19 05:35:08;;;;;;;7.82;5.55;;;;;;;9.29;76.08;93674.75;4196178;28;20052;-66
2024/01/19 05:37:10;;;;;;;7.88;5.38;;;;;;;9.37;75.61;93672.06;4193706;28;20790;-70
2024/01/19 05:39:12;;;;;;;7.50;5.38;;;;;;;9.50;75.87;93661.00;4206774;28;20420;-67
2024/01/19 05:41:21;;;;;;;8.13;5.30;;;;;;;9.56;74.96;93667.34;4201829;28;20054;-68
2024/01/19 05:43:23;;;;;;;7.78;5.25;;;;;;;9.67;74.42;93669.50;4191359;28;20080;-69
2024/01/19 05:45:25;;;;;;;10.15;5.32;;;;;;;9.65;74.35;93668.88;4201124;28;20467;-67
2024/01/19 05:47:26;;;;;;;8.30;6.15;;;;;;;9.69;74.14;93659.69;4196310;28;20079;-68
2024/01/19 05:49:29;;;;;;;8.63;5.57;;;;;;;9.53;74.88;93659.81;4204282;28;20446;-68
2024/01/19 05:51:31;;;;;;;14.63;6.25;;;;;;;9.57;75.00;93667.16;4198824;28;20491;-68
2024/01/19 05:53:33;;;;;;;8.00;5.82;;;;;;;9.51;74.53;93651.38;4197544;28;20647;-68
2024/01/19 05:55:35;;;;;;;10.85;6.57;;;;;;;9.54;74.11;93659.66;4196520;28;20075;-66
2024/01/19 05:57:37;;;;;;;8.40;6.80;;;;;;;9.54;74.41;93648.41;4193271;28;20090;-69
2024/01/19 05:59:39;;;;;;;13.35;9.82;;;;;;;9.59;74.97;93675.63;4199946;28;20044;-69
2024/01/19 06:01:42;;;;;;;12.98;9.02;;;;;;;9.55;73.97;93669.13;4201827;28;20530;-69
2024/01/19 06:03:43;;;;;;;8.95;7.05;;;;;;;9.28;75.02;93659.25;4200182;28;20484;-68
2024/01/19 06:05:45;;;;;;;11.45;7.13;;;;;;;9.33;75.30;93681.25;4199552;28;20163;-69
2024/01/19 06:07:48;;;;;;;10.98;8.02;;;;;;;9.41;75.36;93698.66;4208399;28;20400;-69
2024/01/19 06:09:50;;;;;;;12.75;8.60;;;;;;;9.25;74.98;93683.94;4196065;28;20156;-68
2024/01/19 06:11:52;;;;;;;10.63;8.02;;;;;;;9.14;76.69;93672.09;4198059;28;20048;-69
2024/01/19 06:13:53;;;;;;;10.13;8.15;;;;;;;9.25;76.30;93662.19;4203122;28;20044;-68
2024/01/19 06:15:55;;;;;;;11.70;8.93;;;;;;;9.25;75.78;93688.34;4203829;28;20040;-68
2024/01/19 06:17:57;;;;;;;11.82;8.18;;;;;;;9.11;75.69;93661.19;4193599;28;20597;-69
2024/01/19 06:19:59;;;;;;;13.57;9.75;;;;;;;8.97;76.66;93674.03;4206982;28;20044;-70
2024/01/19 06:22:01;;;;;;;13.55;8.38;;;;;;;9.07;76.57;93706.94;4193531;28;20044;-69
2024/01/19 06:24:03;;;;;;;10.27;8.40;;;;;;;8.95;76.25;93691.66;4192162;28;20482;-68
2024/01/19 06:26:12;;;;;;;11.98;8.85;;;;;;;8.88;77.28;93690.72;4204585;28;20052;-69
2024/01/19 06:28:14;;;;;;;16.25;9.00;;;;;;;9.02;77.18;93689.97;4196153;28;20463;-70
2024/01/19 06:30:16;;;;;;;11.48;7.97;;;;;;;9.18;76.72;93707.34;4200191;28;20098;-69
2024/01/19 06:32:18;;;;;;;12.18;7.85;;;;;;;9.32;76.07;93704.97;4198830;28;20164;-69
2024/01/19 06:34:20;;;;;;;12.98;8.48;;;;;;;9.34;75.16;93709.00;4202935;28;20094;-70
2024/01/19 06:36:22;;;;;;;11.77;8.40;;;;;;;9.39;75.15;93696.22;4206214;28;20070;-68
2024/01/19 06:38:26;;;;;;;11.27;8.70;;;;;;;9.16;74.99;93701.50;4205429;28;20140;-68
2024/01/19 06:40:28;;;;;;;10.30;8.38;;;;;;;9.09;76.01;93718.03;4201179;28;20058;-69
2024/01/19 06:42:31;;;;;;;10.93;9.30;;;;;;;9.11;76.25;93729.91;4200876;28;20098;-67
2024/01/19 06:44:33;;;;;;;11.65;8.50;;;;;;;9.08;75.64;93708.53;4206681;28;20131;-66
2024/01/19 06:46:35;;;;;;;12.90;8.52;;;;;;;9.25;76.23;93719.69;4202452;28;20055;-69
2024/01/19 06:48:37;;;;;;;11.73;8.77;;;;;;;8.64;77.02;93716.97;4195534;28;20051;-68
2024/01/19 06:50:39;;;;;;;14.23;8.40;;;;;;;8.81;76.96;93735.00;4198359;28;20057;-67
2024/01/19 06:52:41;;;;;;;13.95;8.75;;;;;;;9.00;77.28;93736.34;4189943;28;20549;-67
2024/01/19 06:54:43;;;;;;;12.30;9.60;;;;;;;9.14;76.32;93726.13;4205782;28;20040;-67
2024/01/19 06:56:45;;;;;;;13.57;10.10;;;;;;;9.27;76.01;93739.47;4195498;28;20131;-68
2024/01/19 06:58:46;;;;;;;12.48;8.25;;;;;;;9.41;75.58;93743.09;4198359;28;20052;-69
2024/01/19 07:00:48;;;;;;;13.82;9.90;;;;;;;9.51;74.19;93737.66;4203704;28;20163;-68
2024/01/19 07:02:51;;;;;;;11.68;9.57;;;;;;;9.17;75.93;93725.81;4202046;28;20040;-67
2024/01/19 07:04:52;;;;;;;10.85;8.75;;;;;;;9.31;75.62;93745.94;4202504;28;20479;-70
2024/01/19 07:06:54;;;;;;;10.95;8.00;;;;;;;9.45;75.05;93751.41;4204696;28;20063;-68
2024/01/19 07:08:56;;;;;;;14.93;9.05;;;;;;;9.56;75.15;93756.22;4201630;28;20047;-68
2024/01/19 07:10:58;;;;;;;10.30;7.43;;;;;;;9.70;74.52;93749.41;4198632;28;20052;-67
2024/01/19 07:13:00;;;;;;;10.90;8.50;;;;;;;9.60;73.94;93754.88;4195641;28;20079;-68
2024/01/19 07:15:06;;;;;;;9.90;7.30;;;;;;;9.63;73.88;93755.31;4203688;28;20048;-70
2024/01/19 07:17:08;;;;;;;11.40;6.95;;;;;;;9.72;73.93;93748.25;4204048;28;20068;-68
2024/01/19 07:19:12;;;;;;;10.90;6.93;;;;;;;9.83;74.45;93744.41;4200940;28;20406;-67
2024/01/19 07:21:15;;;;;;;9.45;6.90;;;;;;;9.95;73.75;93736.91;4204309;28;20052;-67
2024/01/19 07:23:16;;;;;;;9.98;7.03;;;;;;;10.05;73.09;93758.41;4200348;28;20160;-69
2024/01/19 07:25:18;;;;;;;11.18;7.95;;;;;;;10.13;72.23;93737.41;4201849;28;20132;-67
2024/01/19 07:27:20;;;;;;;9.55;6.88;;;;;;;10.12;71.98;93738.38;4198309;28;20082;-69
2024/01/19 07:29:22;;;;;;;15.65;8.35;;;;;;;9.98;72.95;93729.53;4196886;28;20048;-69
2024/01/19 07:31:24;;;;;;;9.95;7.05;;;;;;;10.09;72.95;93732.69;4198846;28;20048;-70
2024/01/19 07:33:28;;;;;;;11.05;7.32;;;;;;;10.14;72.96;93732.97;4201792;28;20075;-70
2024/01/19 07:35:34;;;;;;;8.82;6.07;;;;;;;10.24;72.37;93734.31;4200571;28;20127;-68
2024/01/19 07:37:36;;;;;;;9.68;6.38;;;;;;;10.39;71.85;93739.59;4190088;28;20056;-71
2024/01/19 07:39:39;;;;;;;10.00;6.93;;;;;;;10.43;71.28;93748.72;4203230;28;20066;-71
2024/01/19 07:41:41;;;;;;;11.07;7.05;;;;;;;10.43;71.10;93732.16;4206864;28;20383;-67
2024/01/19 07:43:43;;;;;;;12.32;7.80;;;;;;;10.54;71.64;93744.81;4190369;28;20481;-69
2024/01/19 07:45:45;;;;;;;10.70;6.47;;;;;;;10.51;71.06;93742.56;4199469;28;20099;-69
2024/01/19 07:47:46;;;;;;;8.25;5.53;;;;;;;10.52;71.13;93753.81;4198389;28;21043;-69
2024/01/19 07:49:48;;;;;;;11.55;6.72;;;;;;;10.55;71.12;93751.66;4204447;28;20146;-69
2024/01/19 07:51:50;;;;;;;13.13;7.03;;;;;;;10.46;70.74;93755.38;4197800;28;20517;-67
2024/01/19 07:53:54;;;;;;;9.63;7.07;;;;;;;10.27;71.60;93750.66;4205304;28;20460;-70
2024/01/19 07:55:56;;;;;;;16.88;11.00;;;;;;;10.11;72.58;93751.63;4208986;28;20090;-68
2024/01/19 07:57:58;;;;;;;15.38;11.00;;;;;;;10.25;72.67;93754.25;4195561;28;20135;-69
2024/01/19 08:00:00;;;;;;;17.80;11.57;;;;;;;10.36;72.13;93754.84;4193565;28;20215;-70
2024/01/19 08:02:03;;;;;;;20.85;13.02;;;;;;;10.47;72.12;93757.00;4194468;28;20064;-68
2024/01/19 08:04:08;;;;;;;18.90;13.27;;;;;;;10.61;71.71;93747.53;4200811;28;20334;-69
2024/01/19 08:06:11;;;;;;;20.15;12.88;;;;;;;10.73;71.18;93753.09;4201848;28;20052;-69
2024/01/19 08:08:13;;;;;;;19.73;13.00;;;;;;;10.62;70.82;93747.31;4204158;28;20270;-68
2024/01/19 08:10:15;;;;;;;21.55;15.40;;;;;;;10.60;71.32;93751.97;4198496;28;20045;-67
2024/01/19 08:12:17;;;;;;;39.70;22.42;;;;;;;10.69;71.27;93751.84;4202664;28;20134;-70
2024/01/19 08:14:21;;;;;;;32.67;19.75;;;;;;;10.60;71.37;93745.88;4207749;28;20070;-69
2024/01/19 08:16:23;;;;;;;36.88;21.55;;;;;;;10.63;71.62;93761.25;4201009;28;20051;-70
2024/01/19 08:18:25;;;;;;;28.45;19.90;;;;;;;10.61;71.07;93765.84;4194276;28;20040;-69
2024/01/19 08:20:26;;;;;;;36.65;23.85;;;;;;;10.65;71.17;93762.69;4202740;28;20044;-69
2024/01/19 08:22:28;;;;;;;45.45;27.08;;;;;;;10.52;71.58;93762.53;4204877;28;20055;-68
2024/01/19 08:24:30;;;;;;;48.70;28.85;;;;;;;10.54;71.58;93765.78;4201200;28;20049;-69
2024/01/19 08:26:32;;;;;;;49.13;28.63;;;;;;;10.63;71.83;93769.91;4205307;28;20482;-68
2024/01/19 08:28:34;;;;;;;29.25;20.77;;;;;;;10.76;71.62;93787.59;4193737;28;20072;-69
2024/01/19 08:30:36;;;;;;;31.08;20.95;;;;;;;10.93;70.81;93772.50;4198620;28;20040;-70
2024/01/19 08:32:38;;;;;;;40.28;25.45;;;;;;;10.79;71.24;93786.41;4199751;28;20502;-68
2024/01/19 08:34:42;;;;;;;29.00;20.08;;;;;;;10.70;70.91;93787.53;4200013;28;20047;-68
2024/01/19 08:36:45;;;;;;;30.67;20.25;;;;;;;10.78;71.18;93782.19;4194449;28;20147;-67
2024/01/19 08:38:47;;;;;;;39.95;25.52;;;;;;;10.93;70.67;93776.94;4206107;28;20051;-69
2024/01/19 08:40:49;;;;;;;36.70;26.05;;;;;;;11.10;70.41;93777.50;4198148;28;20052;-69
2024/01/19 08:42:51;;;;;;;35.88;23.55;;;;;;;11.27;70.56;93782.34;4199763;28;20062;-71
2024/01/19 08:44:53;;;;;;;30.48;21.52;;;;;;;11.37;69.35;93774.16;4198537;28;20051;-68
2024/01/19 08:46:55;;;;;;;24.40;17.33;;;;;;;11.32;69.06;93791.47;4200049;28;20082;-69
2024/01/19 08:48:57;;;;;;;23.73;17.60;;;;;;;11.38;69.08;93782.84;4204124;28;20098;-69
2024/01/19 08:51:00;;;;;;;27.20;17.50;;;;;;;11.35;69.48;93781.41;4200839;28;20052;-69
2024/01/19 08:53:03;;;;;;;22.77;16.67;;;;;;;11.44;69.30;93787.34;4194077;28;20045;-69
2024/01/19 08:55:05;;;;;;;23.38;14.95;;;;;;;11.59;68.99;93793.34;4196917;28;20143;-70
2024/01/19 08:57:07;;;;;;;24.67;15.07;;;;;;;11.72;68.07;93794.47;4199364;28;20040;-68
2024/01/19 08:59:09;;;;;;;17.65;12.77;;;;;;;11.87;68.02;93782.94;4198473;28;20573;-68
2024/01/19 09:01:20;;;;;;;17.73;11.93;;;;;;;12.00;67.28;93779.63;4199457;28;20123;-69
2024/01/19 09:03:23;;;;;;;17.70;10.85;;;;;;;12.13;67.39;93775.44;4193270;28;20147;-69
2024/01/19 09:05:26;;;;;;;10.43;7.47;;;;;;;12.23;66.94;93784.63;4203461;28;20083;-71
2024/01/19 09:07:28;;;;;;;11.82;7.15;;;;;;;12.32;66.09;93781.84;4194179;28;20048;-68
2024/01/19 09:09:30;;;;;;;10.23;6.60;;;;;;;12.29;65.41;93773.34;4201310;28;20484;-70
2024/01/19 09:11:34;;;;;;;8.98;6.07;;;;;;;12.27;65.56;93785.06;4198687;28;20072;-70
2024/01/19 09:13:40;;;;;;;10.85;5.82;;;;;;;12.32;65.55;93776.59;4195198;28;20441;-72
2024/01/19 09:15:42;;;;;;;11.25;6.03;;;;;;;12.24;65.13;93770.50;4208114;28;20067;-68
2024/01/19 09:17:44;;;;;;;12.15;5.43;;;;;;;12.28;65.12;93770.91;4204628;28;20125;-68
2024/01/19 09:19:46;;;;;;;13.75;6.18;;;;;;;12.27;65.30;93770.09;4198813;28;20106;-69
2024/01/19 09:21:50;;;;;;;11.20;6.32;;;;;;;12.36;65.63;93764.72;4199820;28;20682;-69
2024/01/19 09:23:53;;;;;;;12.55;6.85;;;;;;;12.48;64.71;93760.56;4205489;28;20405;-71
2024/01/19 09:25:55;;;;;;;10.90;6.63;;;;;;;12.62;64.51;93756.16;4199729;28;20135;-70
2024/01/19 09:27:57;;;;;;;18.50;7.43;;;;;;;12.73;64.52;93763.50;4195883;28;20048;-71
2024/01/19 09:29:59;;;;;;;15.57;8.40;;;;;;;12.91;63.65;93758.53;4200503;28;20131;-71
2024/01/19 09:32:01;;;;;;;14.10;8.73;;;;;;;13.07;64.15;93752.09;4195619;28;20503;-71
2024/01/19 09:34:03;;;;;;;14.10;8.27;;;;;;;13.34;63.17;93752.22;4203327;28;20178;-70